createdAt,value
2023-03-28T00:04:03.594Z,16.50
2023-03-28T00:09:11.630Z,13.50
2023-03-28T00:14:22.328Z,14.57
2023-03-28T00:19:33.473Z,15.65
2023-03-28T00:24:40.223Z,20.40
2023-03-28T00:29:46.844Z,18.83
2023-03-28T00:34:54.921Z,21.83
2023-03-28T00:40:02.152Z,15.32
2023-03-28T00:45:13.940Z,16.43
2023-03-28T00:50:27.748Z,17.08
2023-03-28T00:55:43.139Z,16.80
2023-03-28T01:00:49.678Z,18.58
2023-03-28T01:05:58.949Z,16.00
2023-03-28T01:11:16.747Z,13.05
2023-03-28T01:16:24.688Z,15.38
2023-03-28T01:22:35.282Z,14.77
2023-03-28T01:27:52.553Z,9.88
2023-03-28T01:33:43.336Z,13.38
2023-03-28T01:38:56.743Z,12.48
2023-03-28T01:44:11.335Z,12.57
2023-03-28T01:49:28.312Z,14.35
2023-03-28T01:54:45.251Z,13.82
2023-03-28T02:00:02.465Z,13.67
2023-03-28T02:05:15.682Z,10.95
2023-03-28T02:10:29.396Z,13.10
2023-03-28T02:15:42.620Z,10.88
2023-03-28T02:21:12.796Z,16.10
2023-03-28T02:26:39.956Z,13.38
2023-03-28T02:31:56.783Z,13.93
2023-03-28T02:37:20.054Z,14.32
2023-03-28T02:43:27.906Z,23.45
2023-03-28T02:49:09.089Z,13.57
2023-03-28T02:54:28.920Z,13.13
2023-03-28T03:00:12.726Z,13.68
2023-03-28T03:05:21.676Z,17.58
2023-03-28T03:10:28.225Z,13.05
2023-03-28T03:15:36.155Z,13.65
2023-03-28T03:21:03.273Z,10.53
2023-03-28T03:26:09.906Z,18.17
2023-03-28T03:31:23.593Z,15.90
2023-03-28T03:36:55.286Z,15.20
2023-03-28T03:42:02.409Z,16.75
2023-03-28T03:47:12.553Z,18.33
2023-03-28T03:52:19.837Z,20.08
2023-03-28T03:57:26.448Z,18.92
2023-03-28T04:02:40.387Z,20.67
2023-03-28T04:07:47.802Z,27.25
2023-03-28T04:13:06.816Z,22.08
2023-03-28T04:18:19.819Z,23.23
2023-03-28T04:23:27.950Z,20.90
2023-03-28T04:28:35.058Z,21.30
2023-03-28T04:33:47.284Z,15.32
2023-03-28T04:38:58.591Z,20.65
2023-03-28T04:44:24.168Z,21.67
2023-03-28T04:49:41.116Z,18.58
2023-03-28T04:54:48.037Z,20.58
2023-03-28T04:59:56.595Z,32.60
2023-03-28T05:05:23.545Z,34.50
2023-03-28T05:10:30.355Z,27.00
2023-03-28T05:15:44.440Z,28.70
2023-03-28T05:21:11.021Z,18.63
2023-03-28T05:26:17.861Z,20.33
2023-03-28T05:31:26.327Z,19.45
2023-03-28T05:36:48.037Z,19.70
2023-03-28T05:42:10.334Z,19.10
2023-03-28T05:52:27.146Z,21.10
2023-03-28T05:57:33.551Z,24.30
2023-03-28T06:02:43.560Z,18.98
2023-03-28T06:12:58.306Z,22.90
2023-03-28T06:18:05.006Z,16.15
2023-03-28T06:23:13.830Z,15.70
2023-03-28T06:28:21.150Z,16.05
2023-03-28T06:33:54.312Z,16.48
2023-03-28T06:39:03.464Z,14.55
2023-03-28T06:44:11.057Z,16.50
2023-03-28T06:49:51.188Z,8.20
2023-03-28T06:55:38.743Z,11.25
2023-03-28T07:00:45.976Z,9.63
2023-03-28T07:06:13.641Z,5.30
2023-03-28T07:11:21.528Z,5.40
2023-03-28T07:16:30.263Z,7.07
2023-03-28T07:21:36.956Z,7.20
2023-03-28T07:26:45.677Z,9.30
2023-03-28T07:31:52.341Z,7.68
2023-03-28T07:36:58.797Z,9.85
2023-03-28T07:42:30.095Z,7.22
2023-03-28T07:47:36.893Z,7.40
2023-03-28T07:52:45.905Z,10.15
2023-03-28T07:57:54.987Z,7.03
2023-03-28T08:03:09.536Z,7.47
2023-03-28T08:08:16.219Z,5.65
2023-03-28T08:13:24.736Z,6.97
2023-03-28T08:18:31.905Z,7.90
2023-03-28T08:23:38.449Z,4.78
2023-03-28T08:29:07.903Z,5.20
2023-03-28T08:34:14.594Z,6.00
2023-03-28T08:39:22.101Z,5.35
2023-03-28T08:44:48.500Z,8.25
2023-03-28T08:50:02.266Z,9.88
2023-03-28T08:55:29.688Z,12.30
2023-03-28T09:00:39.622Z,11.02
2023-03-28T09:05:51.308Z,10.65
2023-03-28T09:11:04.974Z,9.98
2023-03-28T09:16:41.459Z,11.98
2023-03-28T09:22:15.817Z,8.43
2023-03-28T09:27:34.264Z,8.15
2023-03-28T09:32:45.640Z,5.43
2023-03-28T09:37:55.861Z,5.65
2023-03-28T09:43:14.664Z,5.97
2023-03-28T09:48:32.188Z,4.97
2023-03-28T09:53:43.673Z,2.88
2023-03-28T09:58:54.687Z,6.22
2023-03-28T10:04:34.527Z,4.28
2023-03-28T10:10:23.934Z,4.15
2023-03-28T10:15:42.321Z,2.35
2023-03-28T10:21:16.447Z,3.25
2023-03-28T10:26:29.207Z,4.07
2023-03-28T10:31:39.912Z,5.90
2023-03-28T10:37:23.205Z,4.18
2023-03-28T10:42:46.521Z,9.20
2023-03-28T10:48:17.519Z,2.53
2023-03-28T10:53:45.421Z,1.85
2023-03-28T10:59:12.724Z,2.70
2023-03-28T11:04:49.256Z,2.87
2023-03-28T11:10:09.686Z,2.42
2023-03-28T11:15:54.324Z,2.55
2023-03-28T11:21:21.845Z,2.35
2023-03-28T11:26:42.268Z,3.35
2023-03-28T11:32:25.431Z,2.65
2023-03-28T11:37:39.282Z,2.92
2023-03-28T11:42:53.199Z,3.88
2023-03-28T11:48:09.440Z,2.70
2023-03-28T11:53:24.576Z,2.15
2023-03-28T11:58:45.219Z,3.65
2023-03-28T12:04:04.890Z,1.80
2023-03-28T12:09:21.983Z,2.88
2023-03-28T12:14:46.491Z,9.65
2023-03-28T12:20:20.659Z,2.38
2023-03-28T12:25:35.682Z,2.75
2023-03-28T12:30:50.688Z,4.13
2023-03-28T12:36:08.352Z,3.63
2023-03-28T12:41:21.153Z,7.27
2023-03-28T12:46:38.520Z,2.35
2023-03-28T12:51:50.627Z,5.20
2023-03-28T12:57:06.575Z,3.70
2023-03-28T13:02:31.919Z,2.00
2023-03-28T13:08:00.860Z,3.83
2023-03-28T13:13:28.003Z,4.72
2023-03-28T13:18:37.051Z,2.75
2023-03-28T13:23:52.948Z,5.55
2023-03-28T13:29:02.695Z,4.45
2023-03-28T13:34:23.994Z,2.45
2023-03-28T13:39:30.491Z,2.67
2023-03-28T13:44:44.888Z,3.17
2023-03-28T13:50:00.647Z,3.22
2023-03-28T13:55:23.524Z,4.00
2023-03-28T14:00:32.606Z,3.28
2023-03-28T14:05:47.258Z,2.85
2023-03-28T14:10:57.220Z,2.78
2023-03-28T14:16:10.530Z,3.67
2023-03-28T14:21:19.520Z,3.15
2023-03-28T14:26:30.116Z,4.03
2023-03-28T14:31:40.798Z,4.88
2023-03-28T14:37:03.905Z,2.90
2023-03-28T14:42:16.944Z,3.15
2023-03-28T14:47:29.726Z,3.15
2023-03-28T14:52:41.394Z,2.88
2023-03-28T14:57:50.930Z,4.20
2023-03-28T15:02:58.392Z,4.25
2023-03-28T15:08:08.987Z,4.32
2023-03-28T15:13:23.347Z,3.25
2023-03-28T15:18:34.415Z,8.40
2023-03-28T15:23:49.125Z,4.85
2023-03-28T15:28:57.248Z,2.28
2023-03-28T15:34:03.917Z,3.53
2023-03-28T15:39:25.852Z,4.65
2023-03-28T15:44:34.722Z,3.75
2023-03-28T15:49:41.785Z,4.43
2023-03-28T15:54:53.981Z,4.78
2023-03-28T16:00:01.346Z,4.05
2023-03-28T16:05:32.259Z,4.28
2023-03-28T16:10:40.366Z,2.97
2023-03-28T16:16:09.165Z,3.50
2023-03-28T16:21:28.765Z,4.03
2023-03-28T16:26:36.924Z,3.97
2023-03-28T16:31:43.999Z,3.40
2023-03-28T16:36:50.761Z,3.78
2023-03-28T16:41:58.848Z,5.95
2023-03-28T16:47:06.156Z,1.50
2023-03-28T16:52:12.685Z,7.88
2023-03-28T16:57:20.800Z,6.40
2023-03-28T17:02:28.321Z,5.00
2023-03-28T17:07:36.170Z,9.95
2023-03-28T17:12:45.591Z,3.25
2023-03-28T17:23:01.319Z,7.22
2023-03-28T17:28:10.100Z,9.77
2023-03-28T17:33:18.487Z,6.07
2023-03-28T17:38:28.450Z,7.63
2023-03-28T17:43:38.859Z,6.60
2023-03-28T17:48:48.445Z,5.22
2023-03-28T17:53:59.116Z,4.50
2023-03-28T17:59:13.353Z,5.43
2023-03-28T18:04:24.546Z,6.32
2023-03-28T18:09:33.481Z,7.20
2023-03-28T18:19:53.677Z,8.18
2023-03-28T18:25:04.583Z,7.22
2023-03-28T18:30:18.481Z,5.90
2023-03-28T18:35:28.644Z,9.10
2023-03-28T18:40:42.358Z,6.47
2023-03-28T18:45:58.375Z,6.00
2023-03-28T18:51:09.312Z,12.25
2023-03-28T18:56:21.369Z,8.00
2023-03-28T19:01:35.114Z,6.93
2023-03-28T19:06:46.413Z,4.63
2023-03-28T19:11:56.415Z,6.03
2023-03-28T19:17:13.525Z,6.78
2023-03-28T19:22:22.922Z,5.32
2023-03-28T19:27:31.703Z,5.30
2023-03-28T19:37:51.665Z,7.43
2023-03-28T19:43:03.181Z,5.50
2023-03-28T19:48:16.693Z,5.25
2023-03-28T19:53:25.454Z,11.82
2023-03-28T19:58:36.767Z,7.72
2023-03-28T20:03:53.376Z,7.85
2023-03-28T20:09:06.077Z,5.10
2023-03-28T20:14:19.910Z,5.28
2023-03-28T20:19:34.818Z,7.05
2023-03-28T20:24:49.652Z,6.47
2023-03-28T20:29:58.539Z,7.38
2023-03-28T20:35:10.861Z,7.65
2023-03-28T20:40:18.581Z,6.47
2023-03-28T20:45:26.083Z,5.95
2023-03-28T20:50:35.921Z,5.15
2023-03-28T20:55:43.738Z,5.65
2023-03-28T21:00:54.111Z,5.47
2023-03-28T21:06:02.426Z,7.13
2023-03-28T21:11:09.442Z,4.10
2023-03-28T21:16:17.144Z,5.68
2023-03-28T21:21:25.756Z,3.63
2023-03-28T21:26:32.436Z,5.20
2023-03-28T21:31:39.476Z,8.60
2023-03-28T21:36:48.888Z,4.75
2023-03-28T21:41:55.219Z,5.55
2023-03-28T21:47:01.841Z,8.80
2023-03-28T21:52:09.968Z,6.38
2023-03-28T21:57:16.749Z,7.03
2023-03-28T22:02:23.406Z,7.95
2023-03-28T22:07:31.333Z,6.53
2023-03-28T22:12:37.971Z,6.28
2023-03-28T22:17:45.417Z,10.65
2023-03-28T22:22:53.414Z,9.10
2023-03-28T22:28:00.062Z,8.77
2023-03-28T22:33:09.302Z,11.65
2023-03-28T22:38:17.390Z,11.98
2023-03-28T22:43:25.688Z,9.13
2023-03-28T22:48:32.400Z,10.00
2023-03-28T22:53:40.869Z,12.25
2023-03-28T22:58:54.353Z,9.68
2023-03-28T23:04:01.173Z,8.32
2023-03-28T23:09:10.048Z,6.32
2023-03-28T23:19:24.484Z,8.18
2023-03-28T23:24:32.687Z,6.28
2023-03-28T23:29:39.025Z,9.53
2023-03-28T23:34:45.451Z,7.45
2023-03-28T23:39:53.470Z,9.68
2023-03-28T23:44:59.666Z,6.97
2023-03-28T23:50:07.097Z,6.63
2023-03-28T23:55:15.633Z,6.70
